Time;durP1;ratioP1;P1;durP2;ratioP2;P2;SDS_P1;SDS_P2;PMS_P1;PMS_P2;Temp;Humidity;BMP_temperature;BMP_pressure;BME280_temperature;BME280_humidity;BME280_pressure;Samples;Min_cycle;Max_cycle;Signal;HPM_P1;HPM_P2
2023/12/21 00:02:16;;;;;;;56.80;37.75;;;;;;;0.61;100.00;99500.88;4951003;28;20030;-84
2023/12/21 00:04:42;;;;;;;55.38;38.25;;;;;;;0.67;100.00;99497.13;4969308;28;20053;-84
2023/12/21 00:07:08;;;;;;;59.60;39.22;;;;;;;0.69;100.00;99495.28;4970109;28;20105;-83
2023/12/21 00:09:33;;;;;;;54.38;38.30;;;;;;;0.75;100.00;99507.97;4970552;28;20033;-82
2023/12/21 00:11:59;;;;;;;54.80;37.50;;;;;;;0.77;100.00;99506.94;4970842;28;20043;-84
2023/12/21 00:14:29;;;;;;;55.03;38.53;;;;;;;0.74;100.00;99512.31;4973276;28;20479;-82
2023/12/21 00:16:57;;;;;;;58.15;38.55;;;;;;;0.70;100.00;99509.97;4963455;28;20459;-84
2023/12/21 00:19:23;;;;;;;55.65;37.25;;;;;;;0.77;100.00;99503.50;4991777;28;20098;-83
2023/12/21 00:21:48;;;;;;;58.90;37.92;;;;;;;0.80;100.00;99511.13;4979386;28;20126;-83
2023/12/21 00:24:14;;;;;;;54.00;37.25;;;;;;;0.77;100.00;99508.69;4977087;28;20475;-82
2023/12/21 00:26:39;;;;;;;58.03;36.55;;;;;;;0.72;100.00;99510.69;4975176;28;20031;-82
2023/12/21 00:29:06;;;;;;;56.47;37.65;;;;;;;0.69;100.00;99509.13;4981924;28;20022;-82
2023/12/21 00:31:32;;;;;;;52.15;35.33;;;;;;;0.74;100.00;99508.88;4975274;28;20399;-83
2023/12/21 00:33:57;;;;;;;55.80;36.80;;;;;;;0.71;100.00;99511.63;4964870;28;20031;-84
2023/12/21 00:36:23;;;;;;;59.63;36.50;;;;;;;0.66;100.00;99509.28;4966071;28;20055;-82
2023/12/21 00:38:48;;;;;;;54.30;36.33;;;;;;;0.59;100.00;99522.69;4966987;28;20066;-82
2023/12/21 00:41:13;;;;;;;52.83;34.78;;;;;;;0.50;100.00;99520.56;4963601;28;20097;-82
2023/12/21 00:43:39;;;;;;;51.03;35.33;;;;;;;0.46;100.00;99517.28;4966246;28;20034;-83
2023/12/21 00:46:05;;;;;;;54.60;36.13;;;;;;;0.47;100.00;99513.78;4967420;28;20059;-84
2023/12/21 00:48:30;;;;;;;53.88;37.25;;;;;;;0.47;100.00;99513.78;4966151;28;20031;-83
2023/12/21 00:50:55;;;;;;;52.55;35.90;;;;;;;0.45;100.00;99504.38;4968805;28;20130;-82
2023/12/21 00:53:21;;;;;;;57.20;37.67;;;;;;;0.40;100.00;99508.06;4964771;28;20042;-83
2023/12/21 00:55:46;;;;;;;53.50;36.85;;;;;;;0.38;100.00;99509.91;4962896;28;20057;-83
2023/12/21 00:58:12;;;;;;;58.05;37.53;;;;;;;0.37;100.00;99497.84;4965448;28;20122;-83
2023/12/21 01:00:37;;;;;;;58.25;37.55;;;;;;;0.36;100.00;99495.31;4975917;28;20098;-82
2023/12/21 01:03:04;;;;;;;59.28;38.17;;;;;;;0.34;100.00;99497.16;4982910;28;20035;-84
2023/12/21 01:05:30;;;;;;;54.15;36.08;;;;;;;0.34;100.00;99502.34;4961797;28;20038;-82
2023/12/21 01:07:55;;;;;;;58.20;36.53;;;;;;;0.40;100.00;99497.69;4963726;28;20023;-82
2023/12/21 01:10:21;;;;;;;54.28;36.95;;;;;;;0.37;100.00;99497.00;4960286;28;20046;-84
2023/12/21 01:12:47;;;;;;;60.25;40.03;;;;;;;0.34;100.00;99491.97;4962326;28;20038;-83
2023/12/21 01:15:12;;;;;;;63.17;40.83;;;;;;;0.27;100.00;99485.41;4965693;28;20058;-84
2023/12/21 01:17:38;;;;;;;59.78;39.05;;;;;;;0.20;100.00;99487.50;4961447;28;20114;-84
2023/12/21 01:20:04;;;;;;;60.30;38.63;;;;;;;0.20;100.00;99484.91;4964354;28;20034;-82
2023/12/21 01:22:29;;;;;;;59.72;38.58;;;;;;;0.20;100.00;99477.13;4960922;28;20023;-83
2023/12/21 01:24:57;;;;;;;55.13;38.70;;;;;;;0.21;100.00;99476.19;4978857;28;20407;-82
2023/12/21 01:27:22;;;;;;;54.95;37.75;;;;;;;0.22;100.00;99485.66;4960689;28;20027;-82
2023/12/21 01:29:48;;;;;;;56.88;38.97;;;;;;;0.21;100.00;99484.00;4962954;28;20079;-82
2023/12/21 01:32:13;;;;;;;63.08;39.67;;;;;;;0.25;100.00;99488.09;4970975;28;20034;-83
2023/12/21 01:34:39;;;;;;;61.67;39.35;;;;;;;0.18;100.00;99478.09;4964542;28;20027;-84
2023/12/21 01:37:04;;;;;;;55.92;37.65;;;;;;;-0.09;100.00;99473.44;4965149;28;20098;-83
2023/12/21 01:39:30;;;;;;;59.42;39.25;;;;;;;-0.10;100.00;99479.53;4961681;28;20043;-84
2023/12/21 01:41:55;;;;;;;57.28;37.70;;;;;;;0.02;100.00;99482.41;4963164;28;20398;-84
2023/12/21 01:44:21;;;;;;;57.15;37.85;;;;;;;-0.03;100.00;99487.84;4960426;28;20044;-83
2023/12/21 01:46:46;;;;;;;56.78;37.65;;;;;;;0.05;100.00;99501.28;4963068;28;20080;-83
2023/12/21 01:49:12;;;;;;;52.25;36.38;;;;;;;0.07;100.00;99512.38;4962302;28;20042;-84
2023/12/21 01:51:39;;;;;;;58.70;38.60;;;;;;;0.08;100.00;99506.28;4968919;28;20051;-84
2023/12/21 01:54:07;;;;;;;51.92;36.05;;;;;;;0.10;100.00;99504.47;4960236;28;20025;-84
2023/12/21 01:56:33;;;;;;;53.25;35.85;;;;;;;0.11;100.00;99490.56;4981840;28;20082;-84
2023/12/21 01:58:59;;;;;;;52.08;35.55;;;;;;;0.08;100.00;99490.72;4964101;28;20130;-83
2023/12/21 02:01:26;;;;;;;55.92;35.38;;;;;;;0.00;100.00;99492.88;4968299;28;20348;-83
2023/12/21 02:03:52;;;;;;;51.88;36.78;;;;;;;0.05;100.00;99497.84;4959851;28;20027;-84
2023/12/21 02:06:17;;;;;;;54.63;35.95;;;;;;;0.04;100.00;99504.78;4965204;28;20047;-84
2023/12/21 02:08:43;;;;;;;52.17;35.50;;;;;;;0.03;100.00;99508.28;4967255;28;20483;-84
2023/12/21 02:11:09;;;;;;;52.47;34.10;;;;;;;0.02;100.00;99500.56;4966871;28;20487;-85
2023/12/21 02:13:36;;;;;;;49.78;34.55;;;;;;;0.09;100.00;99502.78;4965674;28;20031;-83
2023/12/21 02:16:09;;;;;;;56.65;34.22;;;;;;;0.04;100.00;99501.34;4967871;28;20125;-84
2023/12/21 02:18:35;;;;;;;55.13;34.65;;;;;;;0.03;100.00;99497.06;4979503;28;20387;-83
2023/12/21 02:21:01;;;;;;;53.45;35.92;;;;;;;0.09;100.00;99502.78;4966717;28;20037;-83
2023/12/21 02:23:29;;;;;;;58.80;35.78;;;;;;;0.11;100.00;99500.97;4967359;28;20031;-84
2023/12/21 02:25:55;;;;;;;50.83;34.75;;;;;;;0.12;100.00;99500.00;4963575;28;20049;-84
2023/12/21 02:28:20;;;;;;;47.15;32.97;;;;;;;0.13;100.00;99487.88;4967844;28;20122;-85
2023/12/21 02:30:49;;;;;;;50.40;33.70;;;;;;;0.06;100.00;99489.94;4969058;28;20038;-84
2023/12/21 02:33:14;;;;;;;52.03;35.15;;;;;;;0.05;100.00;99493.50;4963900;28;20035;-85
2023/12/21 02:35:40;;;;;;;50.20;33.83;;;;;;;0.01;100.00;99489.34;4970120;28;20023;-84
2023/12/21 02:38:05;;;;;;;49.72;32.72;;;;;;;0.05;100.00;99496.09;4970831;28;20030;-85
2023/12/21 02:40:31;;;;;;;52.92;32.72;;;;;;;0.06;100.00;99497.72;4965766;28;20460;-84
2023/12/21 02:42:56;;;;;;;54.47;35.03;;;;;;;-0.10;100.00;99510.66;4961399;28;20484;-84
2023/12/21 02:45:22;;;;;;;54.75;33.70;;;;;;;-0.04;100.00;99493.94;4966539;28;20479;-83
2023/12/21 02:47:47;;;;;;;50.83;35.53;;;;;;;-0.05;100.00;99485.31;4964049;28;20482;-84
2023/12/21 02:50:13;;;;;;;53.97;34.08;;;;;;;-0.21;100.00;99483.59;4965278;28;20046;-85
2023/12/21 02:52:38;;;;;;;49.55;33.17;;;;;;;-0.18;100.00;99473.91;4963429;28;20498;-83
2023/12/21 02:55:04;;;;;;;51.17;33.92;;;;;;;-0.13;100.00;99471.06;4966036;28;20155;-84
2023/12/21 02:57:30;;;;;;;50.58;35.08;;;;;;;-0.19;100.00;99466.19;4968459;28;20114;-83
2023/12/21 02:59:55;;;;;;;49.40;33.47;;;;;;;-0.10;100.00;99468.31;4969338;28;20475;-84
2023/12/21 03:02:21;;;;;;;52.47;35.53;;;;;;;-0.08;100.00;99474.28;4987498;28;20043;-83
2023/12/21 03:04:46;;;;;;;49.53;33.63;;;;;;;-0.04;100.00;99468.00;4969382;28;20480;-83
2023/12/21 03:07:12;;;;;;;52.50;35.30;;;;;;;-0.02;100.00;99469.59;4977449;28;20054;-82
2023/12/21 03:09:37;;;;;;;54.13;33.65;;;;;;;-0.01;100.00;99473.03;4970979;28;20034;-82
2023/12/21 03:12:03;;;;;;;52.80;34.67;;;;;;;-0.01;100.00;99486.03;4969164;28;20051;-81
2023/12/21 03:14:28;;;;;;;50.65;32.50;;;;;;;-0.04;100.00;99471.44;4969191;28;20062;-82
2023/12/21 03:16:54;;;;;;;49.20;33.10;;;;;;;-0.06;100.00;99482.81;4976703;28;20087;-81
2023/12/21 03:19:20;;;;;;;47.70;33.25;;;;;;;-0.10;100.00;99481.28;4973245;28;20391;-83
2023/12/21 03:21:45;;;;;;;51.85;33.70;;;;;;;-0.14;100.00;99482.38;4964980;28;20166;-83
2023/12/21 03:24:11;;;;;;;52.65;34.78;;;;;;;-0.21;100.00;99473.22;4970237;28;20043;-83
2023/12/21 03:26:36;;;;;;;54.88;36.20;;;;;;;-0.23;100.00;99464.66;4968600;28;20450;-82
2023/12/21 03:29:02;;;;;;;55.28;34.58;;;;;;;-0.21;100.00;99468.03;4975233;28;20136;-80
2023/12/21 03:31:27;;;;;;;50.25;34.25;;;;;;;-0.24;100.00;99473.38;4972973;28;20024;-82
2023/12/21 03:33:53;;;;;;;51.45;33.63;;;;;;;-0.24;100.00;99466.44;4961359;28;20039;-83
2023/12/21 03:36:18;;;;;;;52.53;34.03;;;;;;;-0.24;100.00;99469.03;4966868;28;20066;-84
2023/12/21 03:38:44;;;;;;;49.70;33.42;;;;;;;-0.33;100.00;99481.59;4965279;28;20039;-84
2023/12/21 03:41:09;;;;;;;55.03;34.33;;;;;;;-0.43;100.00;99478.63;4964577;28;20031;-83
2023/12/21 03:43:35;;;;;;;49.88;32.97;;;;;;;-0.30;100.00;99468.50;4971677;28;20470;-84
2023/12/21 03:46:01;;;;;;;51.35;33.28;;;;;;;-0.22;100.00;99466.34;4965190;28;20075;-84
2023/12/21 03:48:26;;;;;;;51.03;35.65;;;;;;;-0.18;100.00;99465.28;4963085;28;20041;-83
2023/12/21 03:50:51;;;;;;;49.10;34.28;;;;;;;-0.16;100.00;99458.25;4966066;28;20501;-82
2023/12/21 03:53:17;;;;;;;51.83;33.42;;;;;;;-0.14;100.00;99428.75;4964326;28;20070;-83
2023/12/21 03:55:43;;;;;;;50.47;33.00;;;;;;;-0.14;100.00;99425.31;4984746;28;20014;-82
2023/12/21 03:58:09;;;;;;;48.42;32.47;;;;;;;-0.06;100.00;99423.16;4987848;28;20010;-82
2023/12/21 04:00:35;;;;;;;48.20;33.00;;;;;;;-0.02;100.00;99428.09;4987961;28;20089;-83
2023/12/21 04:03:01;;;;;;;49.00;34.00;;;;;;;-0.03;100.00;99443.75;4990822;28;20018;-83
2023/12/21 04:05:27;;;;;;;48.92;34.33;;;;;;;-0.13;100.00;99450.31;4987231;28;20031;-83
2023/12/21 04:07:52;;;;;;;45.50;33.78;;;;;;;-0.18;100.00;99462.69;4990903;28;20022;-85
2023/12/21 04:10:18;;;;;;;55.78;35.35;;;;;;;-0.28;100.00;99458.88;4988436;28;20027;-84
2023/12/21 04:12:43;;;;;;;50.72;33.67;;;;;;;-0.32;100.00;99444.38;4986053;28;20019;-84
2023/12/21 04:15:11;;;;;;;48.40;34.17;;;;;;;-0.28;100.00;99445.91;4987483;28;20027;-83
2023/12/21 04:17:37;;;;;;;50.05;34.63;;;;;;;-0.47;100.00;99428.69;4985042;28;20034;-83
2023/12/21 04:20:04;;;;;;;51.35;32.92;;;;;;;-0.75;100.00;99446.50;4984731;28;20027;-83
2023/12/21 04:22:29;;;;;;;53.92;34.00;;;;;;;-0.64;100.00;99438.22;4986826;28;20052;-84
2023/12/21 04:24:55;;;;;;;50.67;33.50;;;;;;;-0.62;100.00;99426.88;4983564;28;20023;-83
2023/12/21 04:27:20;;;;;;;52.33;34.33;;;;;;;-0.78;100.00;99420.78;4986012;28;20081;-82
2023/12/21 04:29:46;;;;;;;52.65;33.95;;;;;;;-0.66;100.00;99425.34;4987600;28;20038;-82
2023/12/21 04:32:11;;;;;;;54.22;33.65;;;;;;;-0.61;100.00;99418.19;4972994;28;20067;-84
2023/12/21 04:34:37;;;;;;;48.78;33.15;;;;;;;-0.68;100.00;99416.81;4962760;28;20031;-83
2023/12/21 04:37:03;;;;;;;47.85;31.60;;;;;;;-0.61;100.00;99407.81;4980397;28;20395;-82
2023/12/21 04:39:28;;;;;;;48.33;33.08;;;;;;;-0.80;100.00;99411.38;4962103;28;20027;-83
2023/12/21 04:41:54;;;;;;;47.20;32.50;;;;;;;-0.67;100.00;99408.13;4956358;28;20035;-83
2023/12/21 04:44:19;;;;;;;50.40;33.97;;;;;;;-0.62;100.00;99400.94;4962876;28;20091;-84
2023/12/21 04:46:48;;;;;;;45.70;32.40;;;;;;;-0.59;100.00;99405.16;4956981;28;20353;-84
2023/12/21 04:49:14;;;;;;;50.08;32.55;;;;;;;-0.60;100.00;99401.72;4960130;28;20035;-84
2023/12/21 04:51:39;;;;;;;47.80;31.88;;;;;;;-0.85;100.00;99389.13;4975760;28;20049;-84
2023/12/21 04:54:06;;;;;;;48.63;31.15;;;;;;;-0.71;100.00;99391.06;4966735;28;20364;-85
2023/12/21 04:56:32;;;;;;;48.15;32.63;;;;;;;-0.66;100.00;99389.06;4971954;28;20083;-83
2023/12/21 04:58:58;;;;;;;49.53;32.33;;;;;;;-0.70;100.00;99386.69;4977931;28;20138;-84
2023/12/21 05:01:23;;;;;;;44.38;32.25;;;;;;;-0.77;100.00;99396.53;4971987;28;20034;-84
2023/12/21 05:03:50;;;;;;;44.25;30.95;;;;;;;-0.95;100.00;99402.63;4961907;28;20051;-84
2023/12/21 05:06:15;;;;;;;50.05;31.75;;;;;;;-0.92;100.00;99399.88;4961611;28;20035;-84
2023/12/21 05:08:41;;;;;;;42.97;29.98;;;;;;;-0.97;100.00;99399.25;4962541;28;20046;-84
2023/12/21 05:11:06;;;;;;;43.83;31.45;;;;;;;-1.00;100.00;99402.00;4962980;28;20058;-84
2023/12/21 05:13:32;;;;;;;45.05;31.52;;;;;;;-0.89;100.00;99402.31;4964976;28;20035;-85
2023/12/21 05:15:57;;;;;;;43.90;31.13;;;;;;;-0.91;100.00;99394.63;4961751;28;20438;-84
2023/12/21 05:18:23;;;;;;;54.85;32.08;;;;;;;-0.87;100.00;99390.13;4961899;28;20114;-85
2023/12/21 05:20:49;;;;;;;49.45;30.20;;;;;;;-0.84;100.00;99397.75;4964904;28;20407;-84
2023/12/21 05:23:14;;;;;;;46.55;30.25;;;;;;;-1.03;100.00;99396.97;4964009;28;20454;-85
2023/12/21 05:25:40;;;;;;;43.42;31.77;;;;;;;-0.89;100.00;99387.63;4963643;28;20050;-85
2023/12/21 05:28:06;;;;;;;48.33;31.13;;;;;;;-0.77;100.00;99385.34;4964385;28;20041;-84
2023/12/21 05:30:32;;;;;;;45.22;31.25;;;;;;;-0.74;100.00;99391.19;4964260;28;20034;-84
2023/12/21 05:32:57;;;;;;;46.08;31.48;;;;;;;-0.70;100.00;99390.13;4959615;28;20809;-83
2023/12/21 05:35:24;;;;;;;45.22;30.92;;;;;;;-0.68;100.00;99390.88;4967685;28;20039;-83
2023/12/21 05:37:50;;;;;;;43.35;29.42;;;;;;;-0.67;100.00;99387.38;4967801;28;20031;-83
2023/12/21 05:40:16;;;;;;;44.65;29.50;;;;;;;-0.63;100.00;99394.09;4968644;28;20043;-79
2023/12/21 05:42:41;;;;;;;43.28;29.60;;;;;;;-0.63;100.00;99398.44;4966784;28;20031;-82
2023/12/21 05:45:07;;;;;;;45.88;29.50;;;;;;;-0.65;100.00;99387.31;4964601;28;20560;-81
2023/12/21 05:47:33;;;;;;;45.30;30.42;;;;;;;-0.84;100.00;99380.47;4965802;28;20031;-83
2023/12/21 05:49:58;;;;;;;41.05;29.20;;;;;;;-0.75;100.00;99394.69;4967388;28;20398;-84
2023/12/21 05:52:24;;;;;;;42.78;29.65;;;;;;;-0.67;100.00;99392.56;4969357;28;20487;-84
2023/12/21 05:54:49;;;;;;;45.90;30.20;;;;;;;-0.67;100.00;99386.56;4966154;28;20034;-84
2023/12/21 05:57:16;;;;;;;40.40;29.40;;;;;;;-0.68;100.00;99388.28;4967681;28;20270;-83
2023/12/21 05:59:42;;;;;;;46.78;28.80;;;;;;;-0.70;100.00;99399.63;4973685;28;20034;-80
2023/12/21 06:02:08;;;;;;;39.60;28.27;;;;;;;-0.75;100.00;99404.22;4967875;28;20109;-83
2023/12/21 06:04:33;;;;;;;40.17;28.20;;;;;;;-0.75;100.00;99399.03;4970311;28;20487;-77
2023/12/21 06:07:00;;;;;;;44.28;29.20;;;;;;;-0.73;100.00;99403.25;4962311;28;20039;-78
2023/12/21 06:09:25;;;;;;;39.60;28.13;;;;;;;-0.78;100.00;99410.41;4965307;28;20066;-83
2023/12/21 06:11:51;;;;;;;37.95;27.67;;;;;;;-0.81;100.00;99397.59;4974281;28;20051;-79
2023/12/21 06:14:17;;;;;;;40.40;28.80;;;;;;;-0.81;100.00;99387.22;4966644;28;20039;-80
2023/12/21 06:16:45;;;;;;;46.17;28.73;;;;;;;-1.03;100.00;99399.56;4973710;28;20026;-80
2023/12/21 06:19:10;;;;;;;37.70;27.42;;;;;;;-1.01;100.00;99408.94;4971000;28;20030;-81
2023/12/21 06:21:37;;;;;;;40.63;28.77;;;;;;;-0.88;100.00;99402.22;4972452;28;20035;-85
2023/12/21 06:24:04;;;;;;;38.70;28.20;;;;;;;-0.80;100.00;99412.22;4968630;28;20031;-85
2023/12/21 06:26:29;;;;;;;43.70;27.88;;;;;;;-0.76;100.00;99407.72;4966464;28;20089;-77
2023/12/21 06:28:55;;;;;;;41.15;29.42;;;;;;;-0.75;100.00;99393.84;4966560;28;20038;-85
2023/12/21 06:31:20;;;;;;;38.70;28.17;;;;;;;-0.67;100.00;99396.91;4970647;28;20027;-83
2023/12/21 06:33:48;;;;;;;41.88;29.20;;;;;;;-0.61;100.00;99401.78;4980380;28;20038;-82
2023/12/21 06:36:14;;;;;;;40.53;28.20;;;;;;;-0.66;100.00;99398.59;4982177;28;20066;-82
2023/12/21 06:38:41;;;;;;;40.92;28.10;;;;;;;-0.66;100.00;99396.84;4989188;28;20026;-82
2023/12/21 06:41:06;;;;;;;36.47;27.52;;;;;;;-0.70;100.00;99392.72;4993357;28;20042;-78
2023/12/21 06:43:32;;;;;;;43.42;29.23;;;;;;;-0.72;100.00;99399.75;4979440;28;20373;-79
2023/12/21 06:45:58;;;;;;;39.17;28.08;;;;;;;-0.73;100.00;99395.47;4983109;28;20801;-79
2023/12/21 06:48:23;;;;;;;40.22;29.23;;;;;;;-0.72;100.00;99389.38;4978435;28;20048;-79
2023/12/21 06:50:49;;;;;;;45.00;29.55;;;;;;;-0.73;100.00;99387.69;4974742;28;20078;-78
2023/12/21 06:53:15;;;;;;;42.83;28.83;;;;;;;-0.75;100.00;99384.34;4975665;28;20027;-79
2023/12/21 06:55:42;;;;;;;46.15;28.80;;;;;;;-0.71;100.00;99385.03;4978150;28;20070;-77
2023/12/21 06:58:08;;;;;;;40.58;27.88;;;;;;;-0.88;100.00;99385.84;4975851;28;20031;-79
2023/12/21 07:00:33;;;;;;;40.33;27.98;;;;;;;-0.88;100.00;99378.06;4971098;28;20027;-79
2023/12/21 07:03:00;;;;;;;41.75;27.17;;;;;;;-1.06;100.00;99373.81;4977502;28;20031;-78
2023/12/21 07:05:25;;;;;;;41.70;28.45;;;;;;;-1.20;100.00;99373.63;4965995;28;20038;-78
2023/12/21 07:07:51;;;;;;;40.22;27.48;;;;;;;-1.20;100.00;99381.41;4963316;28;20035;-79
2023/12/21 07:10:17;;;;;;;43.45;28.65;;;;;;;-1.05;100.00;99388.41;4964546;28;20121;-80
2023/12/21 07:12:42;;;;;;;40.78;27.77;;;;;;;-1.01;100.00;99397.75;4972286;28;20026;-79
2023/12/21 07:15:08;;;;;;;41.25;27.50;;;;;;;-0.99;100.00;99390.72;4969812;28;20490;-79
2023/12/21 07:17:34;;;;;;;42.15;27.45;;;;;;;-0.92;100.00;99394.69;4971083;28;20030;-78
2023/12/21 07:19:59;;;;;;;42.10;28.33;;;;;;;-0.88;100.00;99402.22;4963125;28;20046;-80
2023/12/21 07:22:25;;;;;;;40.60;27.55;;;;;;;-0.79;100.00;99403.53;4968966;28;20027;-80
2023/12/21 07:24:51;;;;;;;38.50;28.40;;;;;;;-0.76;100.00;99402.53;4969441;28;20039;-79
2023/12/21 07:27:16;;;;;;;42.50;28.35;;;;;;;-0.69;100.00;99391.81;4977204;28;20042;-78
2023/12/21 07:29:44;;;;;;;41.25;27.80;;;;;;;-0.69;100.00;99389.22;4978918;28;20099;-78
2023/12/21 07:32:10;;;;;;;41.53;27.27;;;;;;;-0.55;100.00;99396.31;4977010;28;20494;-78
2023/12/21 07:34:35;;;;;;;38.65;26.50;;;;;;;-0.45;100.00;99392.31;4980539;28;20038;-78
2023/12/21 07:37:01;;;;;;;42.30;27.50;;;;;;;-0.39;100.00;99391.16;4976876;28;20073;-78
2023/12/21 07:39:26;;;;;;;41.60;26.75;;;;;;;-0.29;100.00;99392.38;4980665;28;20050;-79
2023/12/21 07:41:52;;;;;;;37.03;26.63;;;;;;;-0.19;100.00;99384.06;4976408;28;20502;-79
2023/12/21 07:44:17;;;;;;;42.90;27.38;;;;;;;-0.16;100.00;99377.84;4980975;28;20034;-79
2023/12/21 07:46:43;;;;;;;39.83;26.70;;;;;;;-0.10;100.00;99393.09;4974474;28;20038;-78
2023/12/21 07:49:10;;;;;;;42.65;28.00;;;;;;;-0.04;100.00;99403.16;4980909;28;20055;-79
2023/12/21 07:51:35;;;;;;;40.70;26.45;;;;;;;-0.06;100.00;99410.19;4971527;28;20046;-80
2023/12/21 07:54:01;;;;;;;35.50;25.85;;;;;;;-0.08;100.00;99401.66;4969795;28;20046;-78
2023/12/21 07:56:26;;;;;;;37.90;26.30;;;;;;;-0.06;100.00;99403.22;4966190;28;20089;-78
2023/12/21 07:58:52;;;;;;;41.10;26.67;;;;;;;-0.05;100.00;99406.66;4962699;28;20498;-79
2023/12/21 08:01:17;;;;;;;35.03;24.70;;;;;;;-0.06;100.00;99410.19;4962043;28;20038;-79
2023/12/21 08:03:44;;;;;;;40.08;26.45;;;;;;;-0.12;100.00;99410.50;4964221;28;20030;-79
2023/12/21 08:06:19;;;;;;;40.70;27.10;;;;;;;-0.10;100.00;99398.28;4964675;28;20077;-79
2023/12/21 08:08:45;;;;;;;40.58;26.88;;;;;;;-0.08;100.00;99397.31;4964734;28;20032;-79
2023/12/21 08:11:11;;;;;;;45.72;26.85;;;;;;;-0.04;100.00;99404.00;4966057;28;20105;-79
2023/12/21 08:13:37;;;;;;;38.05;26.35;;;;;;;0.03;100.00;99404.50;4966260;28;20035;-80
2023/12/21 08:18:44;;;;;;;39.00;26.83;;;;;;;0.19;100.00;99384.63;4982004;28;20109;-74
2023/12/21 08:21:10;;;;;;;38.20;26.02;;;;;;;0.27;100.00;99398.03;4988817;28;20034;-75
2023/12/21 08:23:36;;;;;;;35.35;24.77;;;;;;;0.32;100.00;99383.03;4979708;28;20355;-76
2023/12/21 08:26:03;;;;;;;38.45;25.98;;;;;;;0.39;100.00;99376.59;4981488;28;20033;-77
2023/12/21 08:28:30;;;;;;;34.67;25.02;;;;;;;0.47;100.00;99364.97;4979164;28;20458;-74
2023/12/21 08:30:56;;;;;;;35.45;24.10;;;;;;;0.53;100.00;99372.41;4983874;28;20539;-76
2023/12/21 08:33:21;;;;;;;35.63;25.02;;;;;;;0.58;100.00;99367.81;4981862;28;20093;-78
2023/12/21 08:35:47;;;;;;;37.47;25.15;;;;;;;0.47;100.00;99362.38;4978426;28;20481;-77
2023/12/21 08:38:12;;;;;;;35.50;24.55;;;;;;;0.68;100.00;99366.38;4980676;28;20656;-77
2023/12/21 08:40:38;;;;;;;47.40;31.10;;;;;;;0.75;100.00;99378.09;4978602;28;20026;-74
2023/12/21 08:43:03;;;;;;;42.70;28.65;;;;;;;0.78;100.00;99372.72;4978612;28;20502;-74
2023/12/21 08:45:28;;;;;;;45.03;31.35;;;;;;;0.83;100.00;99373.28;4981845;28;20359;-75
2023/12/21 08:47:55;;;;;;;42.90;28.27;;;;;;;0.85;100.00;99362.81;4981974;28;20431;-75
2023/12/21 08:50:20;;;;;;;40.08;28.23;;;;;;;0.85;100.00;99379.25;4981336;28;20538;-76
2023/12/21 08:52:45;;;;;;;44.17;29.45;;;;;;;0.69;100.00;99388.81;4981499;28;20114;-76
2023/12/21 08:55:11;;;;;;;44.13;28.95;;;;;;;0.64;100.00;99380.44;4983579;28;20039;-77
2023/12/21 08:57:37;;;;;;;41.83;28.05;;;;;;;0.69;100.00;99388.81;4980144;28;20125;-75
2023/12/21 09:00:10;;;;;;;44.60;28.73;;;;;;;0.75;100.00;99398.88;4981653;28;20038;-75
2023/12/21 09:02:37;;;;;;;40.55;28.42;;;;;;;0.82;100.00;99392.41;4981372;28;20102;-76
2023/12/21 09:05:03;;;;;;;42.25;28.10;;;;;;;0.91;100.00;99394.50;4980847;28;20031;-76
2023/12/21 09:07:29;;;;;;;40.08;28.23;;;;;;;0.97;100.00;99396.75;4981299;28;20030;-78
2023/12/21 09:09:55;;;;;;;45.55;29.75;;;;;;;1.09;100.00;99388.25;5008543;28;20066;-76
2023/12/21 09:12:21;;;;;;;45.20;30.15;;;;;;;1.23;100.00;99393.50;4980795;28;20026;-77
2023/12/21 09:14:47;;;;;;;46.00;30.80;;;;;;;1.39;100.00;99390.00;4978546;28;20046;-77
2023/12/21 09:17:15;;;;;;;45.33;29.85;;;;;;;1.56;100.00;99392.47;4979654;28;20043;-77
2023/12/21 09:19:43;;;;;;;43.22;29.40;;;;;;;1.53;100.00;99397.84;4978301;28;20401;-75
2023/12/21 09:22:09;;;;;;;45.05;30.20;;;;;;;1.60;100.00;99388.75;4977952;28;20035;-76
2023/12/21 09:24:34;;;;;;;40.22;29.10;;;;;;;1.77;100.00;99370.38;4980450;28;20084;-76
2023/12/21 09:26:59;;;;;;;46.67;29.52;;;;;;;1.92;100.00;99364.25;4977340;28;20050;-76
2023/12/21 09:29:25;;;;;;;44.33;30.50;;;;;;;2.04;100.00;99360.91;4981118;28;20175;-77
2023/12/21 09:31:50;;;;;;;45.35;29.88;;;;;;;2.10;100.00;99366.66;4982289;28;20415;-75
2023/12/21 09:34:17;;;;;;;48.30;30.25;;;;;;;2.20;100.00;99368.59;4979970;28;20042;-75
2023/12/21 09:36:43;;;;;;;42.38;29.83;;;;;;;2.31;100.00;99354.91;4978383;28;20058;-75
2023/12/21 09:39:11;;;;;;;50.90;30.83;;;;;;;2.38;100.00;99345.78;4979215;28;20463;-75
2023/12/21 09:41:36;;;;;;;41.88;28.77;;;;;;;2.46;100.00;99343.53;4979802;28;20046;-76
2023/12/21 09:44:03;;;;;;;45.17;30.30;;;;;;;2.51;100.00;99349.28;4977519;28;20042;-76
2023/12/21 09:46:37;;;;;;;40.47;28.40;;;;;;;2.58;100.00;99328.91;4980886;28;20068;-75
2023/12/21 09:49:04;;;;;;;45.45;29.38;;;;;;;2.66;100.00;99324.84;4981875;28;20034;-75
2023/12/21 09:51:31;;;;;;;39.92;27.83;;;;;;;2.75;100.00;99307.81;4977697;28;20034;-76
2023/12/21 09:54:01;;;;;;;43.78;28.92;;;;;;;2.89;100.00;99294.69;4981181;28;20064;-75
2023/12/21 09:56:27;;;;;;;44.90;28.93;;;;;;;2.97;100.00;99291.59;4981762;28;20483;-75
2023/12/21 09:58:55;;;;;;;45.15;29.48;;;;;;;3.05;100.00;99284.94;4978022;28;20498;-78
2023/12/21 10:01:20;;;;;;;41.67;28.38;;;;;;;3.16;100.00;99277.25;4985312;28;20027;-77
2023/12/21 10:03:46;;;;;;;45.60;31.83;;;;;;;3.22;100.00;99276.81;4977772;28;20050;-77
2023/12/21 10:06:12;;;;;;;45.35;30.38;;;;;;;3.26;100.00;99282.66;4979616;28;20116;-77
2023/12/21 10:08:41;;;;;;;43.17;30.27;;;;;;;3.32;100.00;99274.41;4980432;28;20031;-77
2023/12/21 10:11:08;;;;;;;48.58;31.23;;;;;;;3.32;100.00;99287.47;4979150;28;20035;-77
2023/12/21 10:13:37;;;;;;;40.90;29.83;;;;;;;3.29;100.00;99282.47;4980049;28;20049;-79
2023/12/21 10:16:03;;;;;;;43.22;30.98;;;;;;;3.26;100.00;99262.63;4977283;28;20395;-79
2023/12/21 10:18:32;;;;;;;47.78;31.65;;;;;;;3.35;100.00;99263.81;4980438;28;20129;-76
2023/12/21 10:20:59;;;;;;;45.03;30.35;;;;;;;3.41;100.00;99252.13;4980587;28;20038;-75
2023/12/21 10:23:25;;;;;;;46.65;30.38;;;;;;;3.47;100.00;99244.69;4980565;28;20031;-77
2023/12/21 10:25:52;;;;;;;45.33;31.05;;;;;;;3.53;100.00;99233.00;4980422;28;20483;-77
2023/12/21 10:28:24;;;;;;;43.35;29.25;;;;;;;3.62;100.00;99227.13;4982288;28;20035;-77
2023/12/21 10:30:58;;;;;;;50.08;33.00;;;;;;;3.69;100.00;99224.00;4984788;28;20041;-77
2023/12/21 10:33:27;;;;;;;42.83;30.73;;;;;;;3.74;100.00;99225.44;4983763;28;20030;-78
2023/12/21 10:35:54;;;;;;;46.17;32.17;;;;;;;3.80;100.00;99214.56;4979473;28;20027;-77
2023/12/21 10:38:22;;;;;;;47.35;31.48;;;;;;;3.78;100.00;99204.22;4981601;28;20557;-77
2023/12/21 10:40:47;;;;;;;45.70;31.73;;;;;;;3.78;100.00;99199.00;4983013;28;20075;-78
2023/12/21 10:43:17;;;;;;;46.78;32.25;;;;;;;3.82;100.00;99199.66;4982437;28;20054;-78
2023/12/21 10:45:49;;;;;;;56.50;33.97;;;;;;;3.86;100.00;99188.03;4982519;28;20039;-77
2023/12/21 10:48:19;;;;;;;51.00;33.58;;;;;;;3.88;100.00;99181.78;4982644;28;20162;-78
2023/12/21 10:50:47;;;;;;;48.55;32.25;;;;;;;3.73;100.00;99182.84;4982492;28;20031;-77
2023/12/21 10:53:13;;;;;;;48.63;33.25;;;;;;;3.79;100.00;99171.13;4982807;28;20034;-76
2023/12/21 10:55:45;;;;;;;50.03;32.67;;;;;;;3.92;100.00;99166.72;4981132;28;20042;-78
2023/12/21 10:58:11;;;;;;;48.03;32.15;;;;;;;3.98;100.00;99171.50;4983161;28;20427;-76
2023/12/21 11:00:37;;;;;;;46.55;32.35;;;;;;;4.02;100.00;99172.94;4987456;28;20022;-78
2023/12/21 11:03:06;;;;;;;47.30;31.52;;;;;;;4.09;100.00;99174.16;4979286;28;20030;-77
2023/12/21 11:05:34;;;;;;;47.40;32.70;;;;;;;4.17;100.00;99171.00;4982617;28;20457;-77
2023/12/21 11:08:01;;;;;;;50.47;30.67;;;;;;;4.23;100.00;99166.16;4981089;28;20038;-76
2023/12/21 11:10:34;;;;;;;48.45;31.52;;;;;;;4.33;100.00;99159.31;4984532;28;20039;-77
2023/12/21 11:13:00;;;;;;;45.08;31.15;;;;;;;4.43;100.00;99152.47;4984923;28;20050;-76